Coalmont, Colorado
Current Conditions -  °F | °C
As of 9:16 PM on Wednesday 28 Jan 2015 (Local Time) from K33V Reporting Station
Overcast Overcast  
Wind Chill: 32°   Ceiling: 5000
Heat Index: 32°   Visibility: 10mi
Dew Point: 27°   Wind: 3mph
Humidity: 80%   Direction: 100°E
Pressure: 30.31"   Gusts: NA
Location:  40.56°N, 106.45°W
Report Text: K33V 290416Z AUTO 10003KT 10SM SCT040 BKN050 OVC060 00/M03 A3031 RMK AO2
Loading
Personal Weather Stations






























Interactive Weather Map New forecast layout! Learn more

10-Day Weather Forecast

Advertisements
Track Severe Weather on mobile